Time;durP1;ratioP1;P1;durP2;ratioP2;P2;SDS_P1;SDS_P2;PMS_P1;PMS_P2;Temp;Humidity;BMP_temperature;BMP_pressure;BME280_temperature;BME280_humidity;BME280_pressure;Samples;Min_cycle;Max_cycle;Signal;HPM_P1;HPM_P2
2022/05/22 00:00:13;;;;;;;76.67;71.17;;;;;;;12.86;100.00;101870.06;1941376;74;26180;-74
2022/05/22 00:02:45;;;;;;;75.87;70.17;;;;;;;12.84;100.00;101867.53;1953480;73;26634;-72
2022/05/22 00:05:17;;;;;;;73.47;68.37;;;;;;;12.53;100.00;101871.38;1953615;73;26187;-74
2022/05/22 00:07:48;;;;;;;71.63;66.53;;;;;;;12.46;100.00;101867.98;1953495;73;26188;-71
2022/05/22 00:10:19;;;;;;;72.50;67.20;;;;;;;12.43;100.00;101867.14;1951372;73;26663;-74
2022/05/22 00:12:49;;;;;;;72.23;66.63;;;;;;;12.48;100.00;101865.22;1931379;74;26209;-74
2022/05/22 00:15:19;;;;;;;70.93;65.50;;;;;;;12.55;100.00;101857.98;1937095;74;26209;-71
2022/05/22 00:17:50;;;;;;;71.43;66.07;;;;;;;12.42;100.00;101850.97;1937117;74;26774;-73
2022/05/22 00:20:20;;;;;;;71.80;66.57;;;;;;;12.32;100.00;101851.77;1937139;74;26180;-74
2022/05/22 00:22:51;;;;;;;73.70;68.37;;;;;;;12.39;100.00;101853.47;1931359;74;26192;-73
2022/05/22 00:25:21;;;;;;;71.47;65.87;;;;;;;12.43;100.00;101857.39;1937272;74;26348;-74
2022/05/22 00:27:52;;;;;;;71.07;65.97;;;;;;;12.41;100.00;101856.25;1931507;74;26269;-71
2022/05/22 00:30:23;;;;;;;70.53;65.27;;;;;;;12.47;100.00;101856.57;1937086;74;26313;-72
2022/05/22 00:32:53;;;;;;;71.17;65.70;;;;;;;12.39;100.00;101853.47;1931194;74;26257;-74
2022/05/22 00:35:24;;;;;;;70.67;65.47;;;;;;;12.35;100.00;101855.97;1937150;74;26242;-71
2022/05/22 00:37:54;;;;;;;74.47;68.97;;;;;;;12.48;100.00;101852.68;1937227;74;26733;-71
2022/05/22 00:40:24;;;;;;;70.77;65.50;;;;;;;12.45;100.00;101857.97;1931319;74;26278;-74
2022/05/22 00:42:56;;;;;;;69.63;64.47;;;;;;;12.42;100.00;101856.55;1937081;74;26184;-74
2022/05/22 00:45:26;;;;;;;72.93;67.60;;;;;;;12.41;100.00;101858.23;1931440;74;26348;-71
2022/05/22 00:47:56;;;;;;;72.67;67.27;;;;;;;12.46;100.00;101860.46;1937060;74;26253;-74
2022/05/22 00:50:27;;;;;;;76.27;70.60;;;;;;;12.43;100.00;101851.81;1931201;74;26181;-73
2022/05/22 00:52:59;;;;;;;73.87;68.57;;;;;;;12.50;100.00;101853.78;1937230;74;26290;-71
2022/05/22 00:58:37;;;;;;;71.47;65.93;;;;;;;12.71;100.00;101838.23;2045577;69;33193;-73
2022/05/22 01:01:08;;;;;;;73.23;68.00;;;;;;;12.53;100.00;101845.73;1938371;73;26240;-73
2022/05/22 01:03:38;;;;;;;70.97;65.97;;;;;;;12.33;100.00;101840.07;1936243;73;26266;-72
2022/05/22 01:06:11;;;;;;;70.23;65.13;;;;;;;12.06;100.00;101836.63;1968501;72;26275;-72
2022/05/22 01:08:42;;;;;;;71.77;66.47;;;;;;;12.13;100.00;101833.87;1934030;73;26686;-72
2022/05/22 01:11:15;;;;;;;74.37;69.03;;;;;;;12.38;100.00;101832.28;1932607;73;26200;-72
2022/05/22 01:13:48;;;;;;;70.73;65.47;;;;;;;12.59;100.00;101831.23;1942067;73;26197;-75
2022/05/22 01:16:31;;;;;;;69.90;64.60;;;;;;;12.48;100.00;101831.78;1947778;73;26204;-75
2022/05/22 01:19:01;;;;;;;77.50;72.20;;;;;;;12.62;100.00;101834.89;1934096;73;26286;-72
2022/05/22 01:21:33;;;;;;;70.60;65.67;;;;;;;12.84;100.00;101830.44;1937870;73;26203;-75
2022/05/22 01:24:03;;;;;;;75.57;69.97;;;;;;;12.61;100.00;101826.23;1931832;73;26684;-73
2022/05/22 01:26:34;;;;;;;74.57;68.97;;;;;;;12.62;100.00;101825.94;2007975;70;26211;-75
2022/05/22 01:29:05;;;;;;;72.73;67.40;;;;;;;12.62;100.00;101829.31;2012808;70;26214;-75
2022/05/22 01:31:35;;;;;;;69.23;63.93;;;;;;;12.55;100.00;101821.75;2004683;70;26207;-72
2022/05/22 01:34:06;;;;;;;73.40;68.23;;;;;;;12.55;100.00;101827.33;2023985;70;26179;-76
2022/05/22 01:36:36;;;;;;;72.60;67.40;;;;;;;12.35;100.00;101832.84;2018950;70;26247;-75
2022/05/22 01:39:07;;;;;;;71.33;66.47;;;;;;;12.14;100.00;101821.62;2008541;70;26223;-73
2022/05/22 01:41:37;;;;;;;70.03;65.33;;;;;;;12.03;100.00;101819.89;2012483;70;26299;-73
2022/05/22 01:44:08;;;;;;;70.30;65.47;;;;;;;11.90;100.00;101820.37;2012540;70;26215;-75
2022/05/22 01:46:38;;;;;;;72.80;68.00;;;;;;;11.88;100.00;101812.02;2016932;71;26191;-72
2022/05/22 01:49:09;;;;;;;68.80;64.00;;;;;;;11.81;100.00;101814.48;2018166;70;26271;-73
2022/05/22 01:51:42;;;;;;;67.83;62.97;;;;;;;11.94;100.00;101813.73;2027143;70;26202;-75
2022/05/22 01:54:12;;;;;;;67.47;62.63;;;;;;;12.03;100.00;101811.53;2016584;70;26270;-75
2022/05/22 01:56:43;;;;;;;66.57;61.57;;;;;;;12.11;100.00;101811.56;1985099;70;26224;-75
2022/05/22 02:02:36;;;;;;;70.53;65.43;;;;;;;12.15;100.00;101810.75;1980526;72;26660;-72
2022/05/22 02:05:07;;;;;;;69.80;64.00;;;;;;;12.32;100.00;101810.55;1980400;72;26160;-74
2022/05/22 02:10:26;;;;;;;69.73;64.53;;;;;;;12.19;100.00;101802.70;1979719;72;26314;-75
2022/05/22 02:12:56;;;;;;;70.60;65.40;;;;;;;12.24;100.00;101799.36;1979715;72;26209;-73
2022/05/22 02:15:27;;;;;;;68.67;63.47;;;;;;;12.19;100.00;101796.55;1979630;72;26201;-72
2022/05/22 02:17:59;;;;;;;70.50;65.33;;;;;;;12.13;100.00;101797.66;1979728;72;26636;-73
2022/05/22 02:20:29;;;;;;;69.07;63.93;;;;;;;12.15;100.00;101796.81;1979653;72;26368;-75
2022/05/22 02:23:01;;;;;;;67.17;62.07;;;;;;;12.07;100.00;101800.69;1979664;72;26738;-75
2022/05/22 02:25:34;;;;;;;69.13;63.83;;;;;;;12.00;100.00;101802.89;1979679;72;26217;-74
2022/05/22 02:28:07;;;;;;;65.90;60.53;;;;;;;11.99;100.00;101800.66;1979624;72;26746;-73
2022/05/22 02:30:40;;;;;;;70.27;64.97;;;;;;;12.01;100.00;101807.36;1979555;72;26249;-72
2022/05/22 02:33:10;;;;;;;68.53;63.27;;;;;;;11.80;100.00;101804.48;1979786;72;26636;-74
2022/05/22 02:35:41;;;;;;;69.53;64.33;;;;;;;11.64;100.00;101804.05;1909689;74;26612;-75
2022/05/22 02:38:12;;;;;;;68.60;63.67;;;;;;;11.43;100.00;101803.09;1896412;75;26191;-72
2022/05/22 02:40:43;;;;;;;68.97;63.87;;;;;;;11.43;100.00;101791.12;1937270;74;26283;-72
2022/05/22 02:43:13;;;;;;;67.37;62.33;;;;;;;11.48;100.00;101795.88;1931431;74;26253;-72
2022/05/22 02:48:49;;;;;;;69.57;64.33;;;;;;;11.64;100.00;101778.16;2060667;69;33076;-72
2022/05/22 02:51:21;;;;;;;67.23;62.27;;;;;;;11.75;100.00;101785.52;2015557;70;26417;-75
2022/05/22 02:53:52;;;;;;;68.47;63.23;;;;;;;11.74;100.00;101785.22;1937829;74;26836;-72
2022/05/22 02:56:25;;;;;;;71.30;66.13;;;;;;;11.83;100.00;101774.70;1937168;73;26763;-72
2022/05/22 02:58:55;;;;;;;70.80;65.67;;;;;;;11.59;100.00;101776.22;1932904;74;26783;-71
2022/05/22 03:01:25;;;;;;;69.43;64.33;;;;;;;11.61;100.00;101767.58;1904191;75;26189;-74
2022/05/22 03:03:55;;;;;;;70.73;65.53;;;;;;;11.63;100.00;101762.05;1882787;76;26231;-73
2022/05/22 03:06:40;;;;;;;72.13;66.67;;;;;;;11.62;100.00;101758.97;1899639;74;26235;-74
2022/05/22 03:12:20;;;;;;;69.97;64.30;;;;;;;11.88;100.00;101740.48;2049611;69;32674;-75
2022/05/22 03:14:54;;;;;;;66.57;61.27;;;;;;;11.79;100.00;101749.06;1943815;73;26168;-73
2022/05/22 03:17:25;;;;;;;68.93;63.40;;;;;;;11.77;100.00;101754.89;1931591;73;26661;-73
2022/05/22 03:19:56;;;;;;;69.83;64.63;;;;;;;11.84;100.00;101742.98;1937930;73;26679;-71
2022/05/22 03:22:27;;;;;;;69.63;64.40;;;;;;;11.88;100.00;101738.25;2010530;70;26778;-72
2022/05/22 03:24:58;;;;;;;71.20;65.60;;;;;;;11.58;100.00;101732.80;2016826;71;26260;-72
2022/05/22 03:27:28;;;;;;;70.37;64.77;;;;;;;11.54;100.00;101727.48;2012439;70;26208;-74
2022/05/22 03:29:59;;;;;;;69.60;64.23;;;;;;;11.63;100.00;101727.27;2016483;70;26717;-75
2022/05/22 03:32:29;;;;;;;69.27;63.77;;;;;;;11.51;100.00;101721.64;2021439;70;26230;-74
2022/05/22 03:35:00;;;;;;;67.17;62.07;;;;;;;11.45;100.00;101728.27;2016814;71;26739;-74
2022/05/22 03:37:30;;;;;;;69.10;63.93;;;;;;;11.45;100.00;101721.31;2014572;70;26686;-74
2022/05/22 03:40:00;;;;;;;67.37;62.53;;;;;;;11.47;100.00;101712.97;2009566;70;26208;-74
2022/05/22 03:42:30;;;;;;;66.80;61.90;;;;;;;11.24;100.00;101724.53;2023351;70;26722;-71
2022/05/22 03:45:01;;;;;;;68.07;63.07;;;;;;;11.16;100.00;101723.64;2016716;70;26658;-71
2022/05/22 03:47:32;;;;;;;67.73;62.90;;;;;;;11.28;100.00;101722.88;2017263;70;26222;-72
2022/05/22 03:50:04;;;;;;;67.50;62.50;;;;;;;11.01;100.00;101723.52;2019406;70;26211;-71
2022/05/22 03:52:36;;;;;;;63.47;58.70;;;;;;;10.91;100.00;101719.55;2012786;70;26257;-72
2022/05/22 03:58:15;;;;;;;65.47;60.57;;;;;;;10.84;100.00;101705.61;2045993;69;32589;-76
2022/05/22 04:00:46;;;;;;;66.97;61.97;;;;;;;10.91;100.00;101722.91;1900981;73;939055;-72
2022/05/22 04:03:16;;;;;;;64.40;59.40;;;;;;;10.94;100.00;101719.05;1797470;79;26679;-75
2022/05/22 04:05:46;;;;;;;64.73;59.63;;;;;;;11.04;100.00;101714.67;1795909;79;26313;-71
2022/05/22 04:08:16;;;;;;;69.57;64.47;;;;;;;11.06;100.00;101717.45;1817872;79;26263;-75
2022/05/22 04:10:47;;;;;;;70.77;65.57;;;;;;;11.05;100.00;101724.11;1797204;79;26211;-73
2022/05/22 04:13:18;;;;;;;68.07;62.63;;;;;;;11.09;100.00;101721.63;1818930;79;26228;-75
2022/05/22 04:15:48;;;;;;;66.20;60.90;;;;;;;11.07;100.00;101720.53;1861059;77;26372;-75
2022/05/22 04:18:18;;;;;;;67.00;61.67;;;;;;;11.20;100.00;101721.45;1857343;77;26320;-73
2022/05/22 04:20:48;;;;;;;69.00;63.57;;;;;;;11.24;100.00;101717.03;1856287;77;26236;-73
2022/05/22 04:26:06;;;;;;;68.87;63.60;;;;;;;11.37;100.00;101705.42;1852432;77;26236;-74
2022/05/22 04:28:37;;;;;;;65.63;60.53;;;;;;;11.08;100.00;101713.02;1855666;77;26733;-71
2022/05/22 04:31:07;;;;;;;67.33;62.23;;;;;;;11.01;100.00;101710.46;1854754;77;26771;-70
2022/05/22 04:33:37;;;;;;;67.50;62.60;;;;;;;10.87;100.00;101707.84;1853640;77;26310;-75
2022/05/22 04:36:08;;;;;;;66.00;61.23;;;;;;;10.60;100.00;101713.48;1852580;77;26314;-74
2022/05/22 04:38:38;;;;;;;65.77;60.87;;;;;;;10.53;100.00;101712.00;1857231;77;26321;-74
2022/05/22 04:41:09;;;;;;;63.90;59.10;;;;;;;10.71;100.00;101712.45;1852625;77;26697;-71
2022/05/22 04:43:39;;;;;;;67.63;62.63;;;;;;;10.71;100.00;101702.73;1853538;76;26676;-74
2022/05/22 04:46:10;;;;;;;68.70;63.80;;;;;;;10.83;100.00;101700.59;1858104;77;26247;-71
2022/05/22 04:48:41;;;;;;;66.60;61.73;;;;;;;10.70;100.00;101696.88;1858597;77;26336;-71
2022/05/22 04:51:11;;;;;;;66.10;61.23;;;;;;;10.62;100.00;101705.70;1853305;76;26307;-74
2022/05/22 04:53:41;;;;;;;63.97;59.27;;;;;;;10.63;100.00;101704.61;1852571;76;26299;-72
2022/05/22 04:59:17;;;;;;;65.37;60.47;;;;;;;10.78;100.00;101694.19;2060989;69;32648;-72
2022/05/22 05:01:47;;;;;;;65.70;61.00;;;;;;;10.82;100.00;101704.50;1950702;73;26156;-75
2022/05/22 05:04:18;;;;;;;65.33;60.43;;;;;;;10.76;100.00;101698.61;2019317;70;26705;-72
2022/05/22 05:06:48;;;;;;;63.43;58.57;;;;;;;10.90;100.00;101696.22;2017005;70;26237;-75
2022/05/22 05:09:18;;;;;;;68.20;62.97;;;;;;;10.96;100.00;101704.31;2008870;70;26681;-72
2022/05/22 05:11:48;;;;;;;65.20;60.10;;;;;;;11.08;100.00;101701.32;2011803;70;26285;-75
2022/05/22 05:14:18;;;;;;;67.63;62.63;;;;;;;11.22;100.00;101705.86;2010129;70;26207;-75
2022/05/22 05:16:49;;;;;;;67.30;62.10;;;;;;;11.32;100.00;101702.61;2005308;70;26269;-75
2022/05/22 05:19:19;;;;;;;66.60;61.50;;;;;;;11.43;100.00;101705.72;2013752;70;26215;-73
2022/05/22 05:21:49;;;;;;;67.53;62.63;;;;;;;11.49;100.00;101708.53;2016445;70;26230;-75
2022/05/22 05:24:19;;;;;;;67.90;62.70;;;;;;;11.64;100.00;101709.98;2009475;70;26675;-73
2022/05/22 05:26:50;;;;;;;67.53;62.40;;;;;;;11.48;100.00;101704.91;2034314;70;26174;-72
2022/05/22 05:29:21;;;;;;;65.63;60.73;;;;;;;11.60;100.00;101706.91;2013439;70;26215;-75
2022/05/22 05:31:51;;;;;;;68.03;62.47;;;;;;;11.72;100.00;101706.73;2016877;70;26199;-74
2022/05/22 05:34:22;;;;;;;66.20;60.63;;;;;;;11.71;100.00;101706.42;2017935;70;26199;-74
2022/05/22 05:36:53;;;;;;;65.77;60.57;;;;;;;11.76;100.00;101700.91;2012767;70;26673;-74
2022/05/22 05:39:27;;;;;;;63.67;58.57;;;;;;;11.77;100.00;101708.13;2016903;70;26219;-72
2022/05/22 05:41:56;;;;;;;66.47;60.67;;;;;;;11.81;100.00;101707.31;2016493;70;26218;-72
2022/05/22 05:44:26;;;;;;;68.10;62.47;;;;;;;11.85;100.00;101710.41;2016658;71;26659;-72
2022/05/22 05:46:56;;;;;;;72.50;66.90;;;;;;;11.90;100.00;101708.17;2009157;70;26746;-75
2022/05/22 05:49:27;;;;;;;73.93;68.60;;;;;;;12.02;100.00;101714.36;2017425;70;26247;-71
2022/05/22 05:51:57;;;;;;;77.17;71.43;;;;;;;12.12;100.00;101712.98;2014313;70;26744;-72
2022/05/22 05:54:27;;;;;;;73.13;67.40;;;;;;;12.21;100.00;101705.20;2018421;70;26211;-78
2022/05/22 05:56:58;;;;;;;77.73;71.87;;;;;;;12.45;100.00;101713.06;1977867;71;26655;-72
2022/05/22 05:59:28;;;;;;;68.07;62.77;;;;;;;12.49;100.00;101712.78;1983443;72;26704;-78
2022/05/22 06:01:58;;;;;;;77.90;71.83;;;;;;;12.43;100.00;101709.70;1980627;72;26742;-73
2022/05/22 06:04:28;;;;;;;73.43;67.57;;;;;;;12.50;100.00;101706.92;1980254;72;26615;-77
2022/05/22 06:06:59;;;;;;;75.93;70.07;;;;;;;12.63;100.00;101706.92;1980358;72;26193;-73
2022/05/22 06:09:29;;;;;;;70.10;64.57;;;;;;;12.63;100.00;101709.71;1980150;72;26193;-78
2022/05/22 06:12:00;;;;;;;76.27;70.57;;;;;;;12.65;100.00;101697.19;1979788;72;26652;-73
2022/05/22 06:14:30;;;;;;;78.20;72.30;;;;;;;12.67;100.00;101700.52;1979583;72;26209;-72
2022/05/22 06:17:00;;;;;;;80.03;74.30;;;;;;;12.84;100.00;101693.26;1979759;72;26668;-73
2022/05/22 06:22:19;;;;;;;82.90;76.57;;;;;;;12.93;100.00;101687.95;1979779;72;26283;-79
2022/05/22 06:24:50;;;;;;;78.10;72.10;;;;;;;12.86;100.00;101686.02;1979874;72;26213;-78
2022/05/22 06:27:21;;;;;;;76.03;70.23;;;;;;;12.98;100.00;101690.19;1979707;72;26256;-78
2022/05/22 06:29:51;;;;;;;77.23;71.23;;;;;;;12.93;100.00;101687.95;1979672;72;26169;-74
2022/05/22 06:32:22;;;;;;;78.27;72.03;;;;;;;12.96;100.00;101692.44;1979887;72;26186;-76
2022/05/22 06:34:53;;;;;;;79.10;72.93;;;;;;;13.06;100.00;101691.56;1979818;72;26665;-77
2022/05/22 06:37:24;;;;;;;80.97;74.57;;;;;;;13.19;100.00;101686.83;1979762;72;26209;-73
2022/05/22 06:39:55;;;;;;;77.00;71.00;;;;;;;13.27;100.00;101683.46;1979571;72;26735;-78
2022/05/22 06:42:28;;;;;;;83.53;77.33;;;;;;;13.37;100.00;101675.62;1980138;72;26176;-73
2022/05/22 06:45:00;;;;;;;80.33;74.00;;;;;;;13.46;100.00;101685.94;1979683;72;26299;-72
2022/05/22 06:47:32;;;;;;;79.17;73.17;;;;;;;13.35;100.00;101684.27;1979522;72;26165;-69
2022/05/22 06:50:04;;;;;;;83.30;77.17;;;;;;;13.27;100.00;101686.25;1979588;72;26204;-75
2022/05/22 06:52:36;;;;;;;86.60;79.87;;;;;;;13.43;100.00;101679.53;1979625;72;26727;-69
2022/05/22 06:55:09;;;;;;;90.93;84.50;;;;;;;13.58;100.00;101682.81;1979587;72;26315;-71
2022/05/22 06:57:40;;;;;;;84.40;78.20;;;;;;;13.82;100.00;101672.64;1979778;72;26181;-76
2022/05/22 07:00:15;;;;;;;84.43;78.13;;;;;;;13.88;100.00;101673.46;1979595;71;26298;-71
2022/05/22 07:02:48;;;;;;;81.50;75.27;;;;;;;14.01;100.00;101665.84;1979486;72;26165;-68
2022/05/22 07:05:18;;;;;;;81.87;75.97;;;;;;;14.16;100.00;101659.34;1979667;72;26306;-73
2022/05/22 07:07:48;;;;;;;79.37;73.67;;;;;;;14.29;100.00;101658.11;1979692;72;26209;-75
2022/05/22 07:10:19;;;;;;;81.93;76.03;;;;;;;14.48;100.00;101650.73;1979633;72;26189;-71
2022/05/22 07:12:49;;;;;;;78.47;72.87;;;;;;;14.47;100.00;101650.45;1979505;72;26208;-71
2022/05/22 07:18:26;;;;;;;76.17;70.97;;;;;;;14.76;100.00;101636.49;2025703;69;33026;-73
2022/05/22 07:20:56;;;;;;;75.43;70.43;;;;;;;14.72;100.00;101634.61;1942620;73;26670;-75
2022/05/22 07:23:26;;;;;;;79.40;74.20;;;;;;;14.93;100.00;101634.09;1937924;74;26687;-73
2022/05/22 07:25:57;;;;;;;73.67;68.70;;;;;;;15.21;100.00;101632.41;1966057;72;26215;-75
2022/05/22 07:28:27;;;;;;;73.80;69.30;;;;;;;15.28;100.00;101627.27;1923780;73;26302;-68
2022/05/22 07:30:57;;;;;;;72.10;67.37;;;;;;;15.51;100.00;101621.43;2013517;70;26229;-72
2022/05/22 07:33:27;;;;;;;71.03;66.63;;;;;;;15.70;100.00;101612.48;2027107;70;26180;-73
2022/05/22 07:35:59;;;;;;;69.20;65.10;;;;;;;15.76;100.00;101611.84;2012838;70;26671;-73
2022/05/22 07:41:35;;;;;;;63.70;60.17;;;;;;;16.21;100.00;101594.94;2040377;69;32708;-69
2022/05/22 07:44:06;;;;;;;61.80;58.20;;;;;;;16.28;100.00;101593.97;2005607;70;26300;-70
2022/05/22 07:46:36;;;;;;;60.63;57.43;;;;;;;16.37;100.00;101583.72;1932916;73;26233;-72
2022/05/22 07:49:07;;;;;;;62.53;59.07;;;;;;;16.39;100.00;101574.42;1945138;73;26304;-69
2022/05/22 07:51:37;;;;;;;66.37;62.67;;;;;;;16.64;100.00;101560.57;1968899;72;26212;-73
2022/05/22 07:54:07;;;;;;;61.70;58.50;;;;;;;16.88;100.00;101557.01;1935606;73;26216;-70
2022/05/22 07:56:38;;;;;;;58.23;54.93;;;;;;;17.00;100.00;101548.91;1939665;73;26663;-73
2022/05/22 07:59:08;;;;;;;51.37;48.80;;;;;;;16.93;100.00;101544.85;1904813;75;24273;-70
2022/05/22 08:01:38;;;;;;;62.33;59.03;;;;;;;17.02;100.00;101547.20;1938607;73;26319;-69
2022/05/22 08:04:08;;;;;;;61.60;58.30;;;;;;;17.16;100.00;101539.59;1940483;73;24172;-73
2022/05/22 08:06:38;;;;;;;58.30;55.20;;;;;;;17.37;100.00;101530.18;1903161;75;24163;-71
2022/05/22 08:09:09;;;;;;;57.90;54.90;;;;;;;17.36;100.00;101532.16;1938846;73;26241;-73
2022/05/22 08:11:39;;;;;;;56.73;53.70;;;;;;;17.87;100.00;101516.39;1931116;73;26176;-73
2022/05/22 08:17:19;;;;;;;53.93;51.23;;;;;;;18.13;100.00;101516.02;2040872;69;30653;-72
2022/05/22 08:19:47;;;;;;;55.80;52.80;;;;;;;18.13;100.00;101518.83;2010139;70;24150;-72
2022/05/22 08:22:18;;;;;;;43.63;41.20;;;;;;;18.25;100.00;101511.21;2008607;70;24158;-73
2022/05/22 08:24:48;;;;;;;43.87;41.53;;;;;;;18.50;100.00;101509.70;1937881;73;24168;-73
2022/05/22 08:27:18;;;;;;;43.13;40.90;;;;;;;18.69;100.00;101503.88;1943261;73;26217;-73
2022/05/22 08:29:48;;;;;;;38.77;36.87;;;;;;;18.77;100.00;101505.33;1969730;72;24216;-72
2022/05/22 08:32:19;;;;;;;37.50;35.60;;;;;;;18.91;100.00;101506.63;1940937;73;24207;-72
2022/05/22 08:34:49;;;;;;;36.47;34.70;;;;;;;18.87;100.00;101502.81;1965078;72;24249;-72
2022/05/22 08:37:19;;;;;;;36.23;34.23;;;;;;;19.00;100.00;101494.80;1970929;72;24148;-72
2022/05/22 08:39:50;;;;;;;35.57;33.70;;;;;;;19.07;100.00;101493.77;1936765;73;24160;-72
2022/05/22 08:42:23;;;;;;;27.97;26.47;;;;;;;19.41;100.00;101489.62;1938011;73;24161;-72
2022/05/22 08:48:05;;;;;;;22.30;21.10;;;;;;;19.62;100.00;101489.83;2040968;69;30513;-72
2022/05/22 08:53:45;;;;;;;21.47;20.43;;;;;;;20.13;100.00;101475.45;2053809;69;32678;-73
2022/05/22 09:02:25;;;;;;;19.07;17.77;;;;;;;19.92;100.00;101457.82;2045665;69;30593;-73
2022/05/22 09:08:07;;;;;;;15.00;14.10;;;;;;;20.22;100.00;101470.05;2034938;69;30640;-74
2022/05/22 09:10:45;;;;;;;13.53;12.80;;;;;;;20.34;100.00;101466.56;1937443;73;24225;-73
2022/05/22 09:13:22;;;;;;;13.50;12.63;;;;;;;20.35;100.00;101460.59;1934284;73;24259;-73
2022/05/22 09:15:55;;;;;;;12.50;11.77;;;;;;;20.61;100.00;101463.33;1928840;73;24145;-72
2022/05/22 09:18:29;;;;;;;12.27;11.17;;;;;;;20.43;100.00;101456.08;2015140;70;24242;-72
2022/05/22 09:21:04;;;;;;;11.87;10.93;;;;;;;20.76;100.00;101450.04;2009964;70;24715;-71
2022/05/22 09:23:58;;;;;;;12.33;11.53;;;;;;;20.57;100.00;101452.47;2019066;70;24631;-72
2022/05/22 09:26:46;;;;;;;11.77;10.90;;;;;;;20.63;100.00;101447.44;2017208;70;24281;-72
2022/05/22 09:29:30;;;;;;;12.00;11.10;;;;;;;20.85;100.00;101433.05;2016652;70;24148;-72
2022/05/22 09:32:05;;;;;;;12.73;11.83;;;;;;;20.63;100.00;101437.55;2025811;70;24138;-72
2022/05/22 09:34:38;;;;;;;12.30;11.50;;;;;;;20.54;100.00;101442.44;2007975;70;24162;-72
2022/05/22 09:37:14;;;;;;;13.00;12.17;;;;;;;20.73;100.00;101443.67;2021614;70;24149;-73
2022/05/22 09:43:09;;;;;;;17.43;15.90;;;;;;;20.87;100.00;101420.27;2049370;69;30633;-75
2022/05/22 09:45:51;;;;;;;14.57;13.40;;;;;;;20.76;100.00;101421.80;2017119;70;24157;-76
2022/05/22 09:48:31;;;;;;;13.13;12.33;;;;;;;20.52;100.00;101423.59;1935361;73;24620;-72
2022/05/22 09:51:05;;;;;;;11.53;10.73;;;;;;;20.74;100.00;101414.27;1966060;72;24183;-71
2022/05/22 09:53:52;;;;;;;10.20;9.50;;;;;;;21.01;100.00;101393.77;1937712;73;24230;-74
2022/05/22 09:56:28;;;;;;;10.03;9.43;;;;;;;21.25;100.00;101384.06;1941683;72;24223;-75
2022/05/22 10:02:22;;;;;;;10.90;10.10;;;;;;;21.23;100.00;101382.16;2041457;69;30580;-76
2022/05/22 10:08:06;;;;;;;10.63;9.80;;;;;;;21.16;100.00;101372.83;2045268;69;30564;-75
2022/05/22 10:10:40;;;;;;;14.03;9.90;;;;;;;21.22;100.00;101373.45;2001934;70;24159;-73
2022/05/22 10:13:14;;;;;;;11.40;10.60;;;;;;;21.18;100.00;101369.05;2016839;70;24167;-68
2022/05/22 10:15:51;;;;;;;10.33;9.73;;;;;;;21.00;100.00;101366.69;2012809;70;26328;-68
2022/05/22 10:18:32;;;;;;;10.90;10.20;;;;;;;21.02;100.00;101362.92;2025316;70;24142;-68
2022/05/22 10:21:08;;;;;;;10.10;9.40;;;;;;;20.92;100.00;101357.11;2016469;71;24209;-74
2022/05/22 10:23:46;;;;;;;10.40;9.70;;;;;;;21.12;100.00;101348.40;2016741;70;24174;-67
2022/05/22 10:26:22;;;;;;;11.13;10.33;;;;;;;20.96;100.00;101355.84;2004456;70;24127;-76
2022/05/22 10:28:55;;;;;;;11.00;10.20;;;;;;;21.06;100.00;101354.00;2014575;70;24346;-78
2022/05/22 10:31:28;;;;;;;10.80;10.10;;;;;;;21.15;100.00;101344.91;2013711;70;24138;-69
2022/05/22 10:34:04;;;;;;;11.00;10.10;;;;;;;21.25;100.00;101340.27;2017629;71;24144;-69
2022/05/22 10:36:39;;;;;;;11.07;10.37;;;;;;;21.25;100.00;101346.74;1937438;73;24160;-70
2022/05/22 10:39:11;;;;;;;11.57;10.67;;;;;;;21.43;100.00;101347.42;1937671;74;24125;-69
2022/05/22 10:44:35;;;;;;;11.60;10.60;;;;;;;21.43;100.00;101343.19;1932754;73;24238;-69
2022/05/22 10:47:07;;;;;;;11.63;10.73;;;;;;;21.29;100.00;101339.81;1937584;74;26793;-77
2022/05/22 10:49:42;;;;;;;10.77;10.07;;;;;;;21.59;100.00;101337.70;1927641;73;26714;-69
2022/05/22 10:52:15;;;;;;;11.33;10.50;;;;;;;21.41;100.00;101335.63;2013816;71;24195;-68
2022/05/22 10:57:59;;;;;;;10.83;10.17;;;;;;;21.58;100.00;101323.31;2061317;69;30990;-75
2022/05/22 11:00:32;;;;;;;10.73;9.93;;;;;;;21.84;100.00;101326.70;1950706;73;24124;-79
2022/05/22 11:03:13;;;;;;;11.00;10.30;;;;;;;21.60;100.00;101321.81;1967571;72;24161;-79
2022/05/22 11:05:51;;;;;;;10.70;10.00;;;;;;;21.50;100.00;101314.34;1940809;73;24184;-71
2022/05/22 11:08:29;;;;;;;10.57;9.87;;;;;;;21.45;100.00;101315.97;1937835;73;24218;-71
2022/05/22 11:11:13;;;;;;;10.33;9.83;;;;;;;21.60;100.00;101316.16;1938158;73;26767;-79
2022/05/22 11:13:43;;;;;;;10.37;9.70;;;;;;;21.56;100.00;101303.90;1948946;73;24140;-78
2022/05/22 11:16:16;;;;;;;10.50;9.87;;;;;;;21.60;100.00;101304.85;1965865;72;24148;-77
2022/05/22 11:18:47;;;;;;;10.50;9.80;;;;;;;21.48;100.00;101304.78;1937714;73;24227;-70
2022/05/22 11:21:23;;;;;;;10.60;9.90;;;;;;;21.35;100.00;101304.50;1937873;73;24156;-76
2022/05/22 11:24:04;;;;;;;10.90;10.20;;;;;;;21.22;100.00;101307.05;1937849;73;24109;-77
2022/05/22 11:26:39;;;;;;;10.60;9.90;;;;;;;21.23;100.00;101308.09;1934833;73;24210;-76
2022/05/22 11:29:40;;;;;;;11.30;10.40;;;;;;;21.20;100.00;101299.50;1932469;73;24232;-69
2022/05/22 11:32:14;;;;;;;10.67;9.87;;;;;;;21.22;100.00;101292.93;2012812;70;24223;-69
2022/05/22 11:35:20;;;;;;;11.03;10.23;;;;;;;21.10;100.00;101292.81;2008710;70;24638;-76
2022/05/22 11:37:57;;;;;;;11.23;10.37;;;;;;;21.39;100.00;101286.28;1998136;70;24320;-69
2022/05/22 11:40:33;;;;;;;12.03;11.03;;;;;;;21.23;100.00;101278.44;2018299;70;24242;-75
2022/05/22 11:43:11;;;;;;;11.87;11.07;;;;;;;21.22;100.00;101272.53;2014255;70;24156;-75
2022/05/22 11:45:46;;;;;;;15.63;14.73;;;;;;;21.13;100.00;101265.33;2032517;70;24195;-76
2022/05/22 11:48:42;;;;;;;15.73;14.80;;;;;;;21.14;100.00;101257.91;2016348;71;24130;-75
2022/05/22 11:51:26;;;;;;;10.60;9.57;;;;;;;21.24;100.00;101260.31;1937894;74;24124;-75
2022/05/22 11:57:39;;;;;;;9.13;8.63;;;;;;;21.21;100.00;101252.54;2041920;69;30557;-76
2022/05/22 12:00:19;;;;;;;9.73;9.10;;;;;;;21.35;100.00;101245.98;2030633;70;24101;-76
2022/05/22 12:03:15;;;;;;;10.20;9.17;;;;;;;21.45;100.00;101240.48;2025910;70;24132;-70
2022/05/22 12:05:53;;;;;;;10.50;9.57;;;;;;;21.29;100.00;101233.26;2019554;70;24138;-77
2022/05/22 12:08:51;;;;;;;9.60;9.00;;;;;;;21.43;100.00;101225.88;2008568;70;24356;-71
2022/05/22 12:11:26;;;;;;;11.20;9.17;;;;;;;21.40;100.00;101224.31;2016818;70;24279;-70
2022/05/22 12:14:00;;;;;;;14.83;9.63;;;;;;;21.52;100.00;101227.20;2010136;70;24206;-70
2022/05/22 12:16:35;;;;;;;12.47;10.43;;;;;;;21.45;100.00;101221.27;2024009;70;24242;-77
2022/05/22 12:19:12;;;;;;;10.17;9.37;;;;;;;21.46;100.00;101215.87;1932986;73;24283;-76
2022/05/22 12:21:51;;;;;;;17.07;10.07;;;;;;;21.48;100.00;101203.64;1941201;73;24241;-77
2022/05/22 12:24:25;;;;;;;9.83;9.33;;;;;;;21.51;100.00;101210.83;1965741;72;26683;-69
2022/05/22 12:26:56;;;;;;;11.70;10.58;;;;;;;21.66;100.00;101205.89;1930902;73;24161;-77
2022/05/22 12:29:30;;;;;;;10.33;9.47;;;;;;;21.54;100.00;101199.39;1936676;73;24217;-68
2022/05/22 12:32:02;;;;;;;9.93;9.33;;;;;;;21.57;100.00;101193.85;1935865;73;24125;-70
2022/05/22 12:34:37;;;;;;;13.57;9.70;;;;;;;21.75;100.00;101189.64;2013836;70;24150;-77
2022/05/22 12:37:10;;;;;;;9.73;9.10;;;;;;;21.67;100.00;101182.69;2011555;70;24181;-76